createdAt,value
2018-09-09T00:01:52.785Z,6.93
2018-09-09T00:04:20.296Z,6.87
2018-09-09T00:06:47.691Z,7.40
2018-09-09T00:09:20.304Z,7.60
2018-09-09T00:11:47.891Z,7.37
2018-09-09T00:14:15.291Z,7.33
2018-09-09T00:16:42.720Z,7.30
2018-09-09T00:19:10.169Z,7.70
2018-09-09T00:21:37.572Z,7.20
2018-09-09T00:24:04.966Z,7.20
2018-09-09T00:26:32.371Z,6.47
2018-09-09T00:29:00.021Z,6.17
2018-09-09T00:31:27.395Z,8.03
2018-09-09T00:33:54.953Z,7.37
2018-09-09T00:36:22.392Z,7.37
2018-09-09T00:38:49.791Z,7.10
2018-09-09T00:41:17.330Z,6.90
2018-09-09T00:43:44.739Z,6.47
2018-09-09T00:46:12.113Z,7.23
2018-09-09T00:48:39.688Z,6.70
2018-09-09T00:51:12.396Z,6.67
2018-09-09T00:53:44.214Z,6.43
2018-09-09T00:56:11.828Z,6.30
2018-09-09T00:58:40.847Z,7.20
2018-09-09T01:01:13.664Z,6.60
2018-09-09T01:03:41.088Z,6.77
2018-09-09T01:06:08.601Z,7.57
2018-09-09T01:08:36.037Z,7.37
2018-09-09T01:11:03.454Z,7.13
2018-09-09T01:13:30.867Z,6.73
2018-09-09T01:15:58.235Z,7.17
2018-09-09T01:18:25.676Z,6.97
2018-09-09T01:20:53.211Z,6.90
2018-09-09T01:23:20.628Z,6.90
2018-09-09T01:25:48.020Z,6.70
2018-09-09T01:28:15.663Z,6.00
2018-09-09T01:30:43.110Z,6.33
2018-09-09T01:33:10.591Z,6.50
2018-09-09T01:35:38.027Z,6.13
2018-09-09T01:38:05.522Z,6.17
2018-09-09T01:40:33.084Z,6.03
2018-09-09T01:43:00.631Z,6.03
2018-09-09T01:45:28.061Z,6.63
2018-09-09T01:47:55.456Z,6.13
2018-09-09T01:50:22.859Z,5.90
2018-09-09T01:52:50.536Z,6.03
2018-09-09T01:55:17.975Z,6.23
2018-09-09T01:57:45.347Z,5.50
2018-09-09T02:00:12.731Z,5.50
2018-09-09T02:02:40.390Z,5.57
2018-09-09T02:05:07.827Z,5.80
2018-09-09T02:07:35.266Z,5.40
2018-09-09T02:10:02.814Z,5.63
2018-09-09T02:12:30.195Z,6.17
2018-09-09T02:14:57.587Z,5.60
2018-09-09T02:17:24.966Z,4.87
2018-09-09T02:19:52.559Z,5.30
2018-09-09T02:22:20.048Z,5.13
2018-09-09T02:24:47.419Z,4.97
2018-09-09T02:27:14.925Z,5.60
2018-09-09T02:29:42.325Z,5.57
2018-09-09T02:32:09.723Z,5.70
2018-09-09T02:34:37.095Z,5.20
2018-09-09T02:37:04.789Z,5.30
2018-09-09T02:39:32.171Z,5.13
2018-09-09T02:41:59.565Z,5.23
2018-09-09T02:44:26.978Z,5.07
2018-09-09T02:46:54.670Z,5.50
2018-09-09T02:49:22.043Z,5.37
2018-09-09T02:51:49.515Z,5.07
2018-09-09T02:54:16.963Z,5.17
2018-09-09T02:56:44.414Z,5.00
2018-09-09T02:59:12.412Z,5.87
2018-09-09T03:01:39.824Z,4.77
2018-09-09T03:04:07.474Z,5.07
2018-09-09T03:06:34.936Z,5.20
2018-09-09T03:09:02.375Z,5.70
2018-09-09T03:11:29.740Z,4.90
2018-09-09T03:13:57.143Z,5.27
2018-09-09T03:16:24.537Z,4.70
2018-09-09T03:18:51.911Z,5.37
2018-09-09T03:21:19.307Z,5.07
2018-09-09T03:23:46.705Z,4.60
2018-09-09T03:26:14.965Z,5.00
2018-09-09T03:28:42.667Z,4.80
2018-09-09T03:31:10.652Z,4.57
2018-09-09T03:33:38.023Z,4.43
2018-09-09T03:36:05.446Z,4.90
2018-09-09T03:38:32.874Z,4.73
2018-09-09T03:41:00.480Z,4.80
2018-09-09T03:43:28.006Z,4.73
2018-09-09T03:45:55.432Z,4.90
2018-09-09T03:48:22.807Z,4.87
2018-09-09T03:50:50.191Z,4.87
2018-09-09T03:53:17.639Z,5.17
2018-09-09T03:55:45.013Z,4.77
2018-09-09T03:58:12.402Z,4.87
2018-09-09T04:00:39.816Z,4.80
2018-09-09T04:03:07.258Z,5.27
2018-09-09T04:05:34.657Z,4.90
2018-09-09T04:08:02.059Z,4.97
2018-09-09T04:10:29.669Z,4.70
2018-09-09T04:12:57.192Z,4.50
2018-09-09T04:15:25.547Z,4.87
2018-09-09T04:17:52.932Z,4.40
2018-09-09T04:20:20.811Z,4.63
2018-09-09T04:22:48.191Z,4.97
2018-09-09T04:25:15.621Z,4.60
2018-09-09T04:27:43.039Z,4.33
2018-09-09T04:30:10.413Z,4.53
2018-09-09T04:32:38.029Z,4.20
2018-09-09T04:35:05.415Z,4.50
2018-09-09T04:37:32.800Z,4.47
2018-09-09T04:40:00.392Z,4.83
2018-09-09T04:42:27.901Z,4.60
2018-09-09T04:44:55.287Z,4.40
2018-09-09T04:47:22.703Z,4.67
2018-09-09T04:49:50.295Z,4.77
2018-09-09T04:52:18.614Z,4.27
2018-09-09T04:54:46.059Z,4.40
2018-09-09T04:57:14.299Z,4.73
2018-09-09T04:59:41.667Z,4.00
2018-09-09T05:02:09.071Z,4.70
2018-09-09T05:04:36.459Z,4.33
2018-09-09T05:07:04.027Z,4.20
2018-09-09T05:09:31.423Z,4.07
2018-09-09T05:11:58.838Z,4.23
2018-09-09T05:14:26.391Z,4.60
2018-09-09T05:16:54.523Z,4.57
2018-09-09T05:19:21.895Z,4.37
2018-09-09T05:21:49.422Z,4.40
2018-09-09T05:24:16.827Z,4.40
2018-09-09T05:26:44.198Z,4.17
2018-09-09T05:29:11.757Z,4.30
2018-09-09T05:31:39.236Z,3.90
2018-09-09T05:34:06.671Z,4.13
2018-09-09T05:36:34.136Z,4.40
2018-09-09T05:39:01.543Z,4.27
2018-09-09T05:41:29.039Z,4.30
2018-09-09T05:43:56.471Z,4.77
2018-09-09T05:46:23.883Z,4.40
2018-09-09T05:48:51.399Z,4.30
2018-09-09T05:51:18.791Z,5.03
2018-09-09T05:53:46.226Z,4.73
2018-09-09T05:56:13.627Z,4.20
2018-09-09T05:58:41.252Z,4.13
2018-09-09T06:01:08.687Z,4.77
2018-09-09T06:03:36.103Z,5.17
2018-09-09T06:06:03.639Z,5.53
2018-09-09T06:08:31.066Z,4.40
2018-09-09T06:10:58.437Z,4.40
2018-09-09T06:13:26.915Z,4.77
2018-09-09T06:15:54.343Z,4.63
2018-09-09T06:18:21.896Z,4.80
2018-09-09T06:20:49.582Z,4.50
2018-09-09T06:23:16.967Z,4.50
2018-09-09T06:25:44.863Z,4.10
2018-09-09T06:28:12.288Z,4.20
2018-09-09T06:30:39.707Z,4.30
2018-09-09T06:33:07.327Z,4.00
2018-09-09T06:35:34.715Z,3.80
2018-09-09T06:38:02.089Z,4.27
2018-09-09T06:40:29.492Z,4.10
2018-09-09T06:42:56.877Z,3.77
2018-09-09T06:45:24.407Z,4.10
2018-09-09T06:47:52.047Z,3.47
2018-09-09T06:50:20.161Z,3.30
2018-09-09T06:52:47.535Z,3.50
2018-09-09T06:55:14.950Z,3.03
2018-09-09T06:57:42.755Z,3.57
2018-09-09T07:00:10.207Z,3.30
2018-09-09T07:02:38.060Z,3.43
2018-09-09T07:05:05.491Z,3.40
2018-09-09T07:07:32.887Z,3.53
2018-09-09T07:10:00.325Z,3.77
2018-09-09T07:12:27.792Z,3.20
2018-09-09T07:14:55.167Z,3.13
2018-09-09T07:17:22.547Z,3.40
2018-09-09T07:19:50.264Z,3.30
2018-09-09T07:22:17.699Z,2.90
2018-09-09T07:24:45.427Z,3.37
2018-09-09T07:27:12.935Z,3.27
2018-09-09T07:29:40.307Z,3.20
2018-09-09T07:32:07.720Z,3.20
2018-09-09T07:34:35.119Z,3.50
2018-09-09T07:37:02.502Z,2.80
2018-09-09T07:39:29.884Z,2.60
2018-09-09T07:41:57.283Z,2.63
2018-09-09T07:44:24.679Z,2.20
2018-09-09T07:46:52.096Z,2.37
2018-09-09T07:49:19.495Z,2.00
2018-09-09T07:51:46.880Z,2.43
2018-09-09T07:54:14.285Z,2.10
2018-09-09T07:56:41.795Z,2.27
2018-09-09T07:59:09.183Z,2.20
2018-09-09T08:01:36.563Z,2.70
2018-09-09T08:04:03.972Z,2.13
2018-09-09T08:06:31.355Z,1.87
2018-09-09T08:08:58.727Z,1.80
2018-09-09T08:11:31.491Z,2.20
2018-09-09T08:13:58.919Z,1.90
2018-09-09T08:16:26.300Z,1.80
2018-09-09T08:18:53.710Z,1.90
2018-09-09T08:21:21.208Z,1.90
2018-09-09T08:23:48.659Z,1.90
2018-09-09T08:26:16.149Z,1.70
2018-09-09T08:28:43.571Z,1.80
2018-09-09T08:31:11.047Z,1.87
2018-09-09T08:33:38.600Z,1.80
2018-09-09T08:36:06.183Z,1.60
2018-09-09T08:38:33.691Z,1.53
2018-09-09T08:41:01.107Z,1.83
2018-09-09T08:43:28.490Z,1.53
2018-09-09T08:45:55.948Z,1.50
2018-09-09T08:48:23.373Z,1.70
2018-09-09T08:50:51.363Z,1.53
2018-09-09T08:53:18.740Z,1.30
2018-09-09T08:55:46.168Z,1.47
2018-09-09T08:58:13.698Z,1.50
2018-09-09T09:00:41.095Z,1.40
2018-09-09T09:03:08.509Z,1.60
2018-09-09T09:05:35.931Z,1.63
2018-09-09T09:08:03.406Z,1.30
2018-09-09T09:10:30.829Z,1.50
2018-09-09T09:12:58.229Z,1.67
2018-09-09T09:15:25.644Z,1.43
2018-09-09T09:17:53.031Z,1.50
2018-09-09T09:20:20.560Z,1.30
2018-09-09T09:22:47.977Z,1.60
2018-09-09T09:25:15.370Z,1.57
2018-09-09T09:27:42.859Z,1.50
2018-09-09T09:30:10.263Z,1.50
2018-09-09T09:32:37.732Z,1.30
2018-09-09T09:35:05.213Z,1.53
2018-09-09T09:37:32.677Z,1.30
2018-09-09T09:40:00.064Z,1.23
2018-09-09T09:42:27.642Z,1.30
2018-09-09T09:44:55.087Z,1.60
2018-09-09T09:47:22.521Z,1.53
2018-09-09T09:49:49.971Z,1.40
2018-09-09T09:52:17.394Z,1.20
2018-09-09T09:54:44.918Z,1.40
2018-09-09T09:57:12.339Z,1.70
2018-09-09T09:59:39.789Z,1.30
2018-09-09T10:02:07.283Z,1.53
2018-09-09T10:04:34.799Z,1.40
2018-09-09T10:07:02.451Z,1.70
2018-09-09T10:09:29.940Z,1.40
2018-09-09T10:11:57.347Z,1.30
2018-09-09T10:14:24.783Z,1.20
2018-09-09T10:16:52.375Z,1.30
2018-09-09T10:19:19.799Z,1.40
2018-09-09T10:21:47.210Z,1.40
2018-09-09T10:24:14.643Z,1.40
2018-09-09T10:26:42.012Z,1.47
2018-09-09T10:29:09.431Z,1.20
2018-09-09T10:31:37.059Z,1.60
2018-09-09T10:34:04.487Z,1.50
2018-09-09T10:36:31.865Z,1.30
2018-09-09T10:38:59.259Z,1.57
2018-09-09T10:41:26.681Z,1.30
2018-09-09T10:43:54.174Z,1.30
2018-09-09T10:46:21.773Z,1.50
2018-09-09T10:48:49.330Z,1.40
2018-09-09T10:51:17.583Z,1.20
2018-09-09T10:53:44.989Z,1.37
2018-09-09T10:56:12.607Z,1.33
2018-09-09T10:58:40.050Z,1.30
2018-09-09T11:01:07.455Z,1.67
2018-09-09T11:03:34.939Z,1.23
2018-09-09T11:06:02.340Z,1.37
2018-09-09T11:08:29.804Z,1.33
2018-09-09T11:10:57.349Z,1.40
2018-09-09T11:13:24.740Z,1.30
2018-09-09T11:15:52.284Z,1.40
2018-09-09T11:18:19.725Z,1.40
2018-09-09T11:20:47.211Z,1.63
2018-09-09T11:23:15.132Z,1.40
2018-09-09T11:25:42.562Z,1.30
2018-09-09T11:28:10.186Z,1.70
2018-09-09T11:30:37.721Z,1.53
2018-09-09T11:33:05.348Z,1.40
2018-09-09T11:35:32.853Z,1.50
2018-09-09T11:38:00.343Z,2.77
2018-09-09T11:40:27.748Z,1.60
2018-09-09T11:42:55.142Z,1.70
2018-09-09T11:45:23.387Z,26.87
2018-09-09T11:47:50.805Z,4.80
2018-09-09T11:50:18.302Z,8.93
2018-09-09T11:52:45.697Z,2.30
2018-09-09T11:55:13.707Z,2.10
2018-09-09T11:57:41.162Z,3.63
2018-09-09T12:00:08.876Z,9.27
2018-09-09T12:02:36.972Z,4.08
2018-09-09T12:05:04.432Z,4.30
2018-09-09T12:07:31.918Z,1.55
2018-09-09T12:09:59.292Z,3.67
2018-09-09T12:12:27.511Z,1.92
2018-09-09T12:14:56.141Z,1.85
2018-09-09T12:17:23.577Z,3.17
2018-09-09T12:19:51.059Z,2.33
2018-09-09T12:22:18.821Z,1.67
2018-09-09T12:24:46.539Z,1.93
2018-09-09T12:27:13.988Z,2.00
2018-09-09T12:29:41.391Z,1.40
2018-09-09T12:32:08.809Z,1.30
2018-09-09T12:34:36.367Z,1.43
2018-09-09T12:37:03.750Z,1.63
2018-09-09T12:39:31.275Z,2.53
2018-09-09T12:41:58.683Z,1.93
2018-09-09T12:44:31.530Z,1.63
2018-09-09T12:47:04.257Z,1.50
2018-09-09T12:49:31.832Z,1.53
2018-09-09T12:51:59.244Z,1.63
2018-09-09T12:54:26.767Z,1.70
2018-09-09T12:56:54.975Z,1.80
2018-09-09T12:59:22.435Z,2.07
2018-09-09T13:01:49.850Z,1.67
2018-09-09T13:04:17.299Z,1.60
2018-09-09T13:06:44.683Z,1.73
2018-09-09T13:09:12.332Z,1.90
2018-09-09T13:11:39.782Z,1.50
2018-09-09T13:14:07.415Z,1.70
2018-09-09T13:16:34.916Z,1.70
2018-09-09T13:19:02.630Z,1.60
2018-09-09T13:21:30.178Z,1.70
2018-09-09T13:23:57.577Z,1.80
2018-09-09T13:26:24.977Z,1.90
2018-09-09T13:28:52.363Z,1.67
2018-09-09T13:31:19.801Z,1.80
2018-09-09T13:33:47.215Z,1.90
2018-09-09T13:36:14.623Z,1.97
2018-09-09T13:38:42.302Z,1.90
2018-09-09T13:41:10.074Z,1.50
2018-09-09T13:43:37.467Z,1.80
2018-09-09T13:46:04.856Z,1.80
2018-09-09T13:48:32.492Z,1.60
2018-09-09T13:51:00.293Z,1.70
2018-09-09T13:53:27.670Z,1.62
2018-09-09T13:55:55.780Z,1.97
2018-09-09T13:58:23.251Z,1.83
2018-09-09T14:00:50.646Z,1.87
2018-09-09T14:03:18.136Z,1.90
2018-09-09T14:05:45.532Z,2.00
2018-09-09T14:08:13.011Z,1.70
2018-09-09T14:10:40.455Z,2.00
2018-09-09T14:13:07.911Z,1.80
2018-09-09T14:15:35.286Z,1.63
2018-09-09T14:18:02.713Z,2.03
2018-09-09T14:20:30.325Z,2.03
2018-09-09T14:22:57.744Z,1.80
2018-09-09T14:25:25.531Z,1.97
2018-09-09T14:27:53.053Z,1.83
2018-09-09T14:30:21.039Z,1.70
2018-09-09T14:32:48.454Z,1.63
2018-09-09T14:35:16.383Z,2.00
2018-09-09T14:37:43.909Z,1.70
2018-09-09T14:40:11.487Z,1.93
2018-09-09T14:42:38.904Z,1.87
2018-09-09T14:45:06.359Z,1.87
2018-09-09T14:47:33.990Z,2.03
2018-09-09T14:50:01.429Z,1.77
2018-09-09T14:52:28.814Z,1.53
2018-09-09T14:54:56.176Z,1.80
2018-09-09T14:57:23.820Z,2.10
2018-09-09T14:59:51.219Z,1.60
2018-09-09T15:02:18.730Z,1.90
2018-09-09T15:04:46.159Z,1.90
2018-09-09T15:07:13.567Z,1.97
2018-09-09T15:09:41.063Z,1.63
2018-09-09T15:12:08.544Z,1.80
2018-09-09T15:14:36.915Z,1.97
2018-09-09T15:17:04.983Z,1.73
2018-09-09T15:19:32.364Z,1.60
2018-09-09T15:21:59.879Z,1.80
2018-09-09T15:24:27.317Z,2.13
2018-09-09T15:26:55.103Z,1.60
2018-09-09T15:29:22.657Z,1.80
2018-09-09T15:31:50.080Z,2.10
2018-09-09T15:34:17.506Z,1.70
2018-09-09T15:36:45.019Z,1.87
2018-09-09T15:39:12.463Z,1.70
2018-09-09T15:41:39.854Z,1.70
2018-09-09T15:44:07.303Z,1.73
2018-09-09T15:46:35.155Z,2.00
2018-09-09T15:49:02.537Z,1.83
2018-09-09T15:51:30.015Z,1.90
2018-09-09T15:53:57.546Z,2.00
2018-09-09T15:56:24.942Z,1.80
2018-09-09T15:58:52.359Z,2.00
2018-09-09T16:01:19.779Z,2.20
2018-09-09T16:03:47.164Z,1.87
2018-09-09T16:06:15.154Z,1.53
2018-09-09T16:08:42.582Z,2.03
2018-09-09T16:11:09.988Z,1.80
2018-09-09T16:13:37.431Z,1.90
2018-09-09T16:16:04.851Z,1.80
2018-09-09T16:18:32.247Z,1.80
2018-09-09T16:21:00.411Z,2.00
2018-09-09T16:23:27.865Z,1.73
2018-09-09T16:25:55.251Z,1.70
2018-09-09T16:28:22.771Z,1.60
2018-09-09T16:30:50.237Z,2.00
2018-09-09T16:33:17.587Z,1.90
2018-09-09T16:35:44.983Z,1.87
2018-09-09T16:38:12.599Z,1.90
2018-09-09T16:40:40.068Z,1.60
2018-09-09T16:43:07.685Z,2.00
2018-09-09T16:45:35.319Z,1.90
2018-09-09T16:48:02.755Z,2.00
2018-09-09T16:50:30.188Z,1.60
2018-09-09T16:52:57.627Z,2.00
2018-09-09T16:55:25.015Z,1.70
2018-09-09T16:57:52.556Z,1.90
2018-09-09T17:00:20.024Z,2.00
2018-09-09T17:02:47.447Z,2.43
2018-09-09T17:05:14.900Z,2.43
2018-09-09T17:07:42.267Z,2.23
2018-09-09T17:10:09.710Z,2.60
2018-09-09T17:12:37.315Z,3.10
2018-09-09T17:15:04.758Z,1.93
2018-09-09T17:17:32.155Z,2.30
2018-09-09T17:20:00.583Z,2.60
2018-09-09T17:22:28.062Z,2.20
2018-09-09T17:24:55.452Z,2.10
2018-09-09T17:27:23.040Z,3.30
2018-09-09T17:29:50.488Z,2.40
2018-09-09T17:32:17.896Z,2.20
2018-09-09T17:34:45.299Z,2.27
2018-09-09T17:37:12.827Z,2.43
2018-09-09T17:39:40.344Z,2.27
2018-09-09T17:42:08.003Z,2.47
2018-09-09T17:44:35.388Z,2.03
2018-09-09T17:47:02.819Z,2.67
2018-09-09T17:49:30.290Z,2.57
2018-09-09T17:51:57.748Z,2.17
2018-09-09T17:54:25.213Z,2.10
2018-09-09T17:56:52.651Z,2.10
2018-09-09T17:59:20.055Z,2.10
2018-09-09T18:01:47.503Z,2.33
2018-09-09T18:04:14.879Z,2.30
2018-09-09T18:06:42.295Z,2.27
2018-09-09T18:09:10.468Z,2.13
2018-09-09T18:11:38.240Z,2.00
2018-09-09T18:14:05.628Z,2.30
2018-09-09T18:16:33.156Z,2.10
2018-09-09T18:19:01.023Z,2.10
2018-09-09T18:21:28.431Z,2.50
2018-09-09T18:23:56.023Z,2.30
2018-09-09T18:26:23.668Z,2.83
2018-09-09T18:28:51.227Z,2.10
2018-09-09T18:31:18.905Z,2.20
2018-09-09T18:33:46.336Z,2.70
2018-09-09T18:36:14.295Z,2.30
2018-09-09T18:38:41.834Z,2.03
2018-09-09T18:41:09.161Z,2.53
2018-09-09T18:43:36.535Z,2.33
2018-09-09T18:46:03.947Z,2.37
2018-09-09T18:48:31.498Z,2.53
2018-09-09T18:50:59.667Z,2.20
2018-09-09T18:53:27.819Z,2.47
2018-09-09T18:55:55.582Z,2.33
2018-09-09T18:58:22.999Z,2.50
2018-09-09T19:00:50.758Z,2.47
2018-09-09T19:03:18.171Z,2.50
2018-09-09T19:05:45.631Z,2.93
2018-09-09T19:08:13.133Z,2.73
2018-09-09T19:10:40.555Z,2.57
2018-09-09T19:13:08.312Z,2.70
2018-09-09T19:15:35.797Z,2.63
2018-09-09T19:18:03.236Z,2.80
2018-09-09T19:20:30.639Z,2.50
2018-09-09T19:22:58.054Z,2.60
2018-09-09T19:25:25.599Z,2.70
2018-09-09T19:27:53.098Z,2.73
2018-09-09T19:30:20.491Z,2.80
2018-09-09T19:32:47.978Z,3.00
2018-09-09T19:35:15.477Z,3.47
2018-09-09T19:37:42.964Z,3.03
2018-09-09T19:40:10.371Z,3.20
2018-09-09T19:42:38.435Z,3.47
2018-09-09T19:45:06.798Z,3.03
2018-09-09T19:47:34.547Z,2.90
2018-09-09T19:50:02.955Z,3.00
2018-09-09T19:52:30.344Z,2.83
2018-09-09T19:54:57.853Z,3.00
2018-09-09T19:57:25.271Z,3.27
2018-09-09T19:59:52.664Z,3.33
2018-09-09T20:02:20.232Z,3.00
2018-09-09T20:04:47.689Z,3.40
2018-09-09T20:07:15.106Z,3.13
2018-09-09T20:09:42.552Z,3.07
2018-09-09T20:12:10.418Z,3.47
2018-09-09T20:14:37.807Z,3.60
2018-09-09T20:17:05.588Z,3.57
2018-09-09T20:19:33.032Z,3.50
2018-09-09T20:22:00.572Z,3.20
2018-09-09T20:24:28.012Z,3.53
2018-09-09T20:26:55.379Z,3.93
2018-09-09T20:29:22.788Z,3.50
2018-09-09T20:31:50.434Z,3.83
2018-09-09T20:34:17.820Z,3.87
2018-09-09T20:36:45.234Z,3.60
2018-09-09T20:39:12.724Z,3.53
2018-09-09T20:41:40.543Z,3.77
2018-09-09T20:44:08.226Z,4.53
2018-09-09T20:46:35.763Z,3.40
2018-09-09T20:49:03.312Z,4.10
2018-09-09T20:51:31.007Z,3.80
2018-09-09T20:53:58.409Z,3.83
2018-09-09T20:56:26.007Z,4.00
2018-09-09T20:58:53.494Z,4.43
2018-09-09T21:01:20.976Z,4.40
2018-09-09T21:03:48.395Z,4.50
2018-09-09T21:06:15.895Z,4.43
2018-09-09T21:08:43.259Z,5.40
2018-09-09T21:11:10.879Z,4.77
2018-09-09T21:13:38.344Z,5.00
2018-09-09T21:16:06.082Z,4.57
2018-09-09T21:18:33.572Z,4.37
2018-09-09T21:21:01.008Z,4.30
2018-09-09T21:23:28.432Z,4.20
2018-09-09T21:25:55.834Z,3.87
2018-09-09T21:28:23.247Z,4.27
2018-09-09T21:30:50.618Z,4.50
2018-09-09T21:33:18.303Z,5.03
2018-09-09T21:35:45.687Z,4.57
2018-09-09T21:38:13.077Z,4.47
2018-09-09T21:40:40.511Z,4.10
2018-09-09T21:43:07.977Z,3.90
2018-09-09T21:45:35.363Z,4.70
2018-09-09T21:48:02.759Z,4.63
2018-09-09T21:50:30.163Z,4.70
2018-09-09T21:52:57.583Z,4.20
2018-09-09T21:55:25.026Z,3.90
2018-09-09T21:57:52.459Z,4.27
2018-09-09T22:00:19.836Z,4.20
2018-09-09T22:02:47.233Z,5.07
2018-09-09T22:05:14.627Z,4.30
2018-09-09T22:07:41.991Z,4.10
2018-09-09T22:10:09.447Z,4.37
2018-09-09T22:12:37.067Z,3.60
2018-09-09T22:15:04.573Z,4.33
2018-09-09T22:17:31.984Z,3.70
2018-09-09T22:19:59.560Z,4.50
2018-09-09T22:22:26.967Z,3.63
2018-09-09T22:24:54.455Z,3.83
2018-09-09T22:27:21.936Z,3.80
2018-09-09T22:29:49.371Z,3.53
2018-09-09T22:32:16.739Z,3.60
2018-09-09T22:34:44.207Z,4.03
2018-09-09T22:37:11.595Z,3.27
2018-09-09T22:39:38.960Z,3.13
2018-09-09T22:42:06.326Z,3.30
2018-09-09T22:44:33.815Z,3.73
2018-09-09T22:47:01.258Z,3.80
2018-09-09T22:49:28.631Z,3.40
2018-09-09T22:51:56.194Z,4.07
2018-09-09T22:54:23.583Z,3.40
2018-09-09T22:56:51.177Z,3.70
2018-09-09T22:59:18.598Z,3.47
2018-09-09T23:01:46.059Z,3.87
2018-09-09T23:04:13.491Z,3.60
2018-09-09T23:06:40.891Z,3.17
2018-09-09T23:09:09.103Z,3.40
2018-09-09T23:11:36.499Z,3.53
2018-09-09T23:14:03.926Z,3.10
2018-09-09T23:16:31.298Z,3.37
2018-09-09T23:18:58.703Z,3.30
2018-09-09T23:21:26.115Z,3.53
2018-09-09T23:23:53.522Z,3.30
2018-09-09T23:26:20.974Z,3.50
2018-09-09T23:28:48.469Z,3.20
2018-09-09T23:31:15.919Z,3.10
2018-09-09T23:33:43.347Z,3.47
2018-09-09T23:36:10.809Z,2.97
2018-09-09T23:38:38.219Z,3.40
2018-09-09T23:41:05.735Z,3.37
2018-09-09T23:43:33.118Z,3.43
2018-09-09T23:46:00.659Z,3.57
2018-09-09T23:48:28.092Z,2.97
2018-09-09T23:50:55.567Z,3.50
2018-09-09T23:53:23.067Z,3.20
2018-09-09T23:55:50.551Z,3.43
2018-09-09T23:58:17.926Z,3.40
